createdAt,value
2017-05-13T00:01:48.661Z,20.08
2017-05-13T00:04:17.951Z,19.58
2017-05-13T00:06:47.032Z,21.08
2017-05-13T00:09:16.810Z,20.10
2017-05-13T00:11:46.159Z,20.22
2017-05-13T00:14:15.205Z,21.18
2017-05-13T00:16:44.283Z,20.48
2017-05-13T00:19:13.362Z,21.10
2017-05-13T00:21:42.427Z,21.44
2017-05-13T00:24:12.256Z,19.72
2017-05-13T00:26:41.309Z,20.84
2017-05-13T00:29:10.872Z,20.66
2017-05-13T00:31:40.069Z,19.38
2017-05-13T00:34:09.152Z,22.04
2017-05-13T00:36:38.205Z,18.22
2017-05-13T00:39:07.296Z,19.24
2017-05-13T00:41:36.339Z,19.46
2017-05-13T00:44:05.419Z,19.46
2017-05-13T00:46:35.212Z,16.90
2017-05-13T00:49:04.314Z,18.74
2017-05-13T00:51:33.361Z,20.76
2017-05-13T00:54:02.423Z,17.32
2017-05-13T00:56:32.247Z,15.78
2017-05-13T00:59:01.300Z,20.42
2017-05-13T01:01:30.381Z,18.88
2017-05-13T01:03:59.429Z,16.48
2017-05-13T01:06:28.495Z,20.64
2017-05-13T01:08:57.601Z,19.56
2017-05-13T01:11:27.383Z,17.78
2017-05-13T01:13:56.468Z,17.64
2017-05-13T01:16:25.567Z,20.28
2017-05-13T01:18:54.621Z,18.38
2017-05-13T01:21:24.443Z,19.22
2017-05-13T01:23:53.509Z,20.00
2017-05-13T01:26:22.588Z,20.66
2017-05-13T01:28:51.654Z,21.16
2017-05-13T01:31:20.787Z,18.52
2017-05-13T01:33:49.867Z,19.90
2017-05-13T01:36:18.900Z,24.88
2017-05-13T01:38:49.027Z,17.62
2017-05-13T01:41:18.080Z,19.66
2017-05-13T01:43:47.429Z,17.06
2017-05-13T01:46:16.472Z,16.16
2017-05-13T01:48:45.551Z,16.42
2017-05-13T01:51:14.655Z,16.96
2017-05-13T01:53:43.695Z,19.42
2017-05-13T01:56:13.832Z,19.62
2017-05-13T01:58:43.132Z,19.88
2017-05-13T02:01:12.259Z,19.82
2017-05-13T02:03:41.305Z,19.78
2017-05-13T02:06:11.438Z,19.52
2017-05-13T02:08:40.491Z,18.58
2017-05-13T02:11:09.605Z,17.48
2017-05-13T02:13:38.648Z,17.08
2017-05-13T02:16:07.727Z,19.60
2017-05-13T02:18:36.802Z,20.66
2017-05-13T02:21:06.600Z,19.74
2017-05-13T02:23:35.688Z,17.22
2017-05-13T02:26:04.741Z,20.34
2017-05-13T02:28:33.849Z,21.24
2017-05-13T02:31:02.921Z,18.64
2017-05-13T02:33:31.955Z,20.08
2017-05-13T02:36:01.031Z,19.60
2017-05-13T02:38:30.081Z,20.42
2017-05-13T02:40:59.909Z,19.34
2017-05-13T02:43:29.687Z,18.12
2017-05-13T02:45:58.769Z,18.74
2017-05-13T02:48:27.859Z,18.52
2017-05-13T02:50:56.900Z,20.18
2017-05-13T02:53:26.712Z,19.34
2017-05-13T02:55:56.570Z,25.16
2017-05-13T02:58:25.617Z,18.02
2017-05-13T03:00:55.455Z,18.76
2017-05-13T03:03:24.494Z,19.20
2017-05-13T03:05:53.573Z,18.34
2017-05-13T03:08:22.629Z,19.10
2017-05-13T03:10:52.446Z,17.94
2017-05-13T03:13:21.493Z,19.22
2017-05-13T03:15:50.558Z,20.92
2017-05-13T03:18:19.653Z,21.34
2017-05-13T03:20:48.935Z,18.64
2017-05-13T03:23:18.031Z,19.52
2017-05-13T03:25:47.079Z,19.46
2017-05-13T03:28:16.383Z,20.60
2017-05-13T03:30:45.461Z,18.78
2017-05-13T03:33:14.507Z,18.84
2017-05-13T03:35:44.327Z,18.54
2017-05-13T03:38:13.632Z,17.56
2017-05-13T03:40:42.729Z,17.66
2017-05-13T03:43:12.131Z,18.20
2017-05-13T03:45:41.432Z,16.94
2017-05-13T03:48:10.520Z,18.44
2017-05-13T03:50:40.313Z,19.20
2017-05-13T03:53:09.449Z,19.88
2017-05-13T03:55:38.514Z,17.74
2017-05-13T03:58:08.325Z,18.74
2017-05-13T04:00:38.147Z,30.40
2017-05-13T04:03:07.927Z,24.42
2017-05-13T04:05:37.016Z,22.62
2017-05-13T04:08:06.051Z,20.14
2017-05-13T04:10:35.876Z,19.64
2017-05-13T04:13:04.926Z,21.20
2017-05-13T04:15:34.001Z,21.14
2017-05-13T04:18:03.052Z,20.76
2017-05-13T04:20:32.874Z,20.98
2017-05-13T04:23:01.928Z,21.16
2017-05-13T04:25:31.003Z,22.64
2017-05-13T04:28:00.128Z,22.80
2017-05-13T04:30:29.198Z,22.60
2017-05-13T04:32:58.255Z,23.82
2017-05-13T04:35:27.328Z,21.62
2017-05-13T04:37:57.231Z,22.34
2017-05-13T04:40:26.279Z,21.38
2017-05-13T04:42:55.346Z,18.68
2017-05-13T04:45:25.470Z,20.02
2017-05-13T04:47:54.528Z,20.50
2017-05-13T04:50:23.599Z,22.02
2017-05-13T04:52:52.701Z,22.24
2017-05-13T04:55:21.755Z,22.36
2017-05-13T04:57:50.855Z,24.08
2017-05-13T05:00:19.948Z,22.66
2017-05-13T05:02:48.983Z,25.58
2017-05-13T05:05:18.053Z,26.54
2017-05-13T05:07:47.127Z,24.74
2017-05-13T05:10:16.898Z,24.98
2017-05-13T05:12:45.988Z,22.10
2017-05-13T05:15:15.030Z,24.32
2017-05-13T05:17:44.839Z,21.60
2017-05-13T05:20:14.659Z,23.36
2017-05-13T05:22:43.699Z,22.86
2017-05-13T05:25:12.784Z,25.86
2017-05-13T05:27:41.878Z,25.32
2017-05-13T05:30:10.917Z,23.70
2017-05-13T05:32:40.243Z,26.58
2017-05-13T05:35:09.325Z,23.30
2017-05-13T05:37:39.120Z,23.44
2017-05-13T05:40:08.198Z,25.80
2017-05-13T05:42:37.244Z,28.56
2017-05-13T05:45:06.317Z,26.10
2017-05-13T05:47:35.748Z,26.18
2017-05-13T05:50:04.784Z,25.12
2017-05-13T05:52:33.873Z,27.14
2017-05-13T05:55:02.923Z,26.18
2017-05-13T05:57:32.739Z,28.28
2017-05-13T06:00:01.788Z,31.62
2017-05-13T06:02:30.868Z,25.30
2017-05-13T06:04:59.915Z,26.38
2017-05-13T06:07:29.739Z,28.86
2017-05-13T06:09:58.781Z,24.92
2017-05-13T06:12:27.860Z,25.60
2017-05-13T06:14:56.944Z,25.64
2017-05-13T06:17:25.979Z,26.36
2017-05-13T06:19:55.074Z,27.08
2017-05-13T06:22:24.126Z,23.62
2017-05-13T06:24:53.204Z,26.24
2017-05-13T06:27:23.346Z,27.50
2017-05-13T06:29:52.383Z,28.78
2017-05-13T06:32:21.473Z,28.52
2017-05-13T06:34:50.556Z,26.58
2017-05-13T06:37:19.919Z,28.70
2017-05-13T06:39:49.011Z,27.72
2017-05-13T06:42:18.055Z,27.66
2017-05-13T06:44:47.156Z,26.70
2017-05-13T06:47:16.203Z,33.54
2017-05-13T06:49:45.274Z,31.60
2017-05-13T06:52:15.091Z,28.68
2017-05-13T06:54:44.883Z,30.12
2017-05-13T06:57:13.958Z,32.80
2017-05-13T06:59:43.012Z,30.30
2017-05-13T07:02:12.107Z,28.64
2017-05-13T07:04:41.176Z,30.22
2017-05-13T07:07:10.264Z,31.08
2017-05-13T07:09:39.320Z,31.80
2017-05-13T07:12:08.404Z,30.36
2017-05-13T07:14:37.486Z,31.30
2017-05-13T07:17:06.532Z,34.68
2017-05-13T07:19:35.616Z,33.70
2017-05-13T07:22:04.703Z,34.04
2017-05-13T07:24:34.075Z,34.10
2017-05-13T07:27:03.179Z,34.92
2017-05-13T07:29:32.234Z,31.00
2017-05-13T07:32:01.308Z,35.60
2017-05-13T07:34:30.375Z,33.38
2017-05-13T07:36:59.422Z,33.02
2017-05-13T07:39:28.512Z,36.90
2017-05-13T07:41:57.557Z,32.32
2017-05-13T07:44:26.637Z,31.32
2017-05-13T07:46:56.572Z,31.10
2017-05-13T07:49:27.138Z,29.28
2017-05-13T07:51:56.230Z,31.16
2017-05-13T07:54:25.588Z,29.42
2017-05-13T07:56:54.664Z,36.24
2017-05-13T07:59:24.453Z,27.92
2017-05-13T08:01:53.545Z,34.80
2017-05-13T08:04:22.574Z,29.94
2017-05-13T08:06:51.680Z,27.34
2017-05-13T08:09:20.724Z,36.46
2017-05-13T08:11:49.808Z,37.22
2017-05-13T08:14:18.899Z,37.12
2017-05-13T08:16:48.020Z,36.10
2017-05-13T08:19:17.124Z,36.42
2017-05-13T08:21:46.169Z,51.70
2017-05-13T08:24:15.336Z,38.82
2017-05-13T08:26:45.122Z,33.80
2017-05-13T08:29:14.218Z,66.32
2017-05-13T08:31:43.267Z,39.18
2017-05-13T08:34:12.563Z,43.88
2017-05-13T08:36:41.657Z,34.52
2017-05-13T08:39:10.711Z,41.26
2017-05-13T08:41:39.801Z,38.60
2017-05-13T08:44:08.879Z,33.58
2017-05-13T08:46:37.927Z,37.38
2017-05-13T08:49:07.027Z,36.04
2017-05-13T08:51:36.124Z,30.94
2017-05-13T08:54:05.195Z,37.78
2017-05-13T08:56:34.282Z,38.94
2017-05-13T08:59:03.343Z,36.86
2017-05-13T09:01:32.439Z,46.48
2017-05-13T09:04:01.545Z,44.68
2017-05-13T09:06:30.598Z,40.40
2017-05-13T09:09:00.439Z,41.28
2017-05-13T09:11:29.956Z,42.20
2017-05-13T09:13:59.123Z,36.52
2017-05-13T09:16:28.185Z,39.18
2017-05-13T09:18:57.275Z,40.86
2017-05-13T09:21:26.355Z,39.18
2017-05-13T09:23:55.394Z,41.26
2017-05-13T09:26:24.500Z,40.52
2017-05-13T09:28:53.542Z,39.34
2017-05-13T09:31:22.622Z,39.50
2017-05-13T09:33:51.683Z,40.36
2017-05-13T09:36:20.771Z,41.60
2017-05-13T09:38:50.899Z,43.16
2017-05-13T09:41:20.199Z,42.38
2017-05-13T09:43:49.280Z,41.16
2017-05-13T09:46:19.076Z,43.90
2017-05-13T09:48:48.159Z,44.32
2017-05-13T09:51:17.203Z,38.70
2017-05-13T09:53:46.275Z,40.74
2017-05-13T09:56:16.091Z,40.98
2017-05-13T09:58:45.885Z,43.82
2017-05-13T10:01:16.043Z,41.74
2017-05-13T10:03:45.101Z,41.76
2017-05-13T10:06:14.206Z,48.58
2017-05-13T10:08:43.263Z,43.34
2017-05-13T10:11:12.337Z,53.74
2017-05-13T10:13:41.427Z,53.02
2017-05-13T10:16:10.474Z,42.24
2017-05-13T10:18:39.551Z,45.82
2017-05-13T10:21:08.657Z,44.30
2017-05-13T10:23:37.703Z,43.16
2017-05-13T10:26:06.790Z,43.84
2017-05-13T10:28:36.596Z,50.14
2017-05-13T10:31:06.385Z,47.98
2017-05-13T10:33:35.501Z,45.70
2017-05-13T10:36:05.288Z,44.68
2017-05-13T10:38:34.385Z,52.40
2017-05-13T10:41:03.428Z,73.14
2017-05-13T10:43:32.490Z,55.82
2017-05-13T10:46:02.285Z,45.26
2017-05-13T10:48:31.372Z,39.62
2017-05-13T10:51:00.409Z,40.82
2017-05-13T10:53:30.254Z,51.54
2017-05-13T10:55:59.301Z,40.96
2017-05-13T10:58:28.416Z,35.32
2017-05-13T11:00:58.244Z,38.74
2017-05-13T11:03:27.287Z,37.62
2017-05-13T11:05:56.368Z,35.72
2017-05-13T11:08:25.735Z,38.20
2017-05-13T11:10:55.031Z,41.54
2017-05-13T11:13:24.132Z,39.00
2017-05-13T11:15:53.184Z,34.32
2017-05-13T11:18:22.263Z,40.84
2017-05-13T11:20:51.348Z,36.42
2017-05-13T11:23:20.392Z,35.48
2017-05-13T11:25:50.232Z,35.74
2017-05-13T11:28:19.278Z,35.80
2017-05-13T11:30:48.358Z,32.74
2017-05-13T11:33:17.457Z,36.48
2017-05-13T11:35:46.532Z,35.62
2017-05-13T11:38:15.626Z,31.86
2017-05-13T11:40:44.667Z,33.22
2017-05-13T11:43:13.734Z,33.74
2017-05-13T11:45:42.823Z,34.76
2017-05-13T11:48:11.874Z,36.18
2017-05-13T11:50:41.687Z,33.68
2017-05-13T11:53:11.466Z,35.44
2017-05-13T11:55:40.810Z,39.28
2017-05-13T11:58:09.850Z,35.12
2017-05-13T12:00:38.952Z,28.28
2017-05-13T12:03:07.999Z,33.88
2017-05-13T12:05:37.067Z,31.26
2017-05-13T12:08:06.155Z,29.08
2017-05-13T12:10:35.490Z,32.36
2017-05-13T12:13:04.598Z,39.92
2017-05-13T12:15:33.643Z,27.20
2017-05-13T12:18:02.711Z,29.02
2017-05-13T12:20:31.791Z,33.12
2017-05-13T12:23:00.839Z,37.96
2017-05-13T12:25:29.934Z,29.50
2017-05-13T12:27:59.267Z,28.20
2017-05-13T12:30:28.368Z,27.56
2017-05-13T12:32:57.764Z,27.58
2017-05-13T12:35:26.803Z,31.74
2017-05-13T12:37:56.163Z,34.48
2017-05-13T12:40:25.198Z,26.62
2017-05-13T12:42:54.276Z,28.24
2017-05-13T12:45:23.393Z,32.24
2017-05-13T12:47:52.433Z,30.34
2017-05-13T12:50:22.255Z,33.10
2017-05-13T12:52:51.559Z,28.40
2017-05-13T12:55:20.632Z,29.18
2017-05-13T12:57:50.421Z,28.34
2017-05-13T13:00:19.499Z,27.66
2017-05-13T13:02:49.244Z,24.78
2017-05-13T13:05:18.323Z,24.54
2017-05-13T13:07:47.367Z,26.40
2017-05-13T13:10:16.667Z,28.82
2017-05-13T13:12:45.714Z,27.72
2017-05-13T13:15:14.800Z,23.50
2017-05-13T13:17:43.842Z,20.44
2017-05-13T13:20:13.669Z,28.88
2017-05-13T13:22:43.157Z,33.50
2017-05-13T13:25:12.987Z,27.66
2017-05-13T13:27:42.027Z,19.50
2017-05-13T13:30:11.114Z,22.16
2017-05-13T13:32:40.205Z,18.64
2017-05-13T13:35:09.256Z,17.52
2017-05-13T13:37:39.048Z,17.92
2017-05-13T13:40:08.387Z,17.08
2017-05-13T13:42:37.435Z,14.10
2017-05-13T13:45:06.507Z,11.72
2017-05-13T13:47:35.607Z,14.16
2017-05-13T13:50:04.966Z,22.28
2017-05-13T13:52:34.072Z,14.12
2017-05-13T13:55:03.116Z,15.44
2017-05-13T13:57:32.212Z,12.64
2017-05-13T14:00:01.252Z,11.08
2017-05-13T14:02:30.351Z,13.68
2017-05-13T14:04:59.439Z,12.02
2017-05-13T14:07:28.479Z,12.36
2017-05-13T14:09:57.564Z,11.26
2017-05-13T14:12:26.658Z,9.66
2017-05-13T14:14:55.686Z,11.68
2017-05-13T14:17:24.779Z,11.26
2017-05-13T14:19:53.844Z,10.22
2017-05-13T14:22:22.928Z,9.08
2017-05-13T14:24:52.292Z,11.50
2017-05-13T14:27:22.072Z,12.66
2017-05-13T14:29:51.141Z,13.40
2017-05-13T14:32:20.187Z,12.34
2017-05-13T14:34:49.263Z,11.12
2017-05-13T14:37:18.306Z,16.84
2017-05-13T14:39:47.707Z,10.40
2017-05-13T14:42:16.809Z,12.84
2017-05-13T14:44:45.866Z,14.18
2017-05-13T14:47:14.947Z,10.32
2017-05-13T14:49:43.988Z,11.72
2017-05-13T14:52:13.051Z,12.86
2017-05-13T14:54:42.136Z,11.64
2017-05-13T14:57:11.576Z,13.94
2017-05-13T14:59:41.383Z,12.64
2017-05-13T15:02:11.198Z,11.78
2017-05-13T15:04:41.231Z,12.08
2017-05-13T15:07:10.333Z,10.86
2017-05-13T15:09:39.375Z,11.02
2017-05-13T15:12:08.828Z,12.04
2017-05-13T15:14:37.866Z,16.94
2017-05-13T15:17:06.966Z,11.70
2017-05-13T15:19:36.024Z,19.58
2017-05-13T15:22:05.095Z,11.78
2017-05-13T15:24:35.128Z,11.52
2017-05-13T15:27:04.208Z,14.06
2017-05-13T15:29:33.997Z,10.88
2017-05-13T15:32:03.080Z,12.66
2017-05-13T15:34:32.132Z,18.28
2017-05-13T15:37:01.227Z,12.90
2017-05-13T15:39:30.311Z,11.98
2017-05-13T15:42:00.100Z,12.64
2017-05-13T15:44:29.217Z,14.50
2017-05-13T15:46:59.007Z,13.38
2017-05-13T15:49:28.100Z,16.26
2017-05-13T15:51:57.139Z,16.96
2017-05-13T15:54:26.243Z,17.62
2017-05-13T15:56:55.289Z,15.26
2017-05-13T15:59:24.354Z,15.90
2017-05-13T16:01:53.438Z,16.12
2017-05-13T16:04:22.817Z,14.72
2017-05-13T16:06:51.888Z,13.34
2017-05-13T16:09:21.666Z,13.90
2017-05-13T16:11:50.765Z,11.58
2017-05-13T16:14:19.803Z,12.22
2017-05-13T16:16:49.649Z,11.78
2017-05-13T16:19:18.692Z,11.62
2017-05-13T16:21:48.023Z,12.52
2017-05-13T16:24:17.128Z,13.00
2017-05-13T16:26:46.185Z,12.08
2017-05-13T16:29:15.515Z,13.14
2017-05-13T16:31:44.593Z,14.20
2017-05-13T16:34:14.371Z,13.20
2017-05-13T16:36:43.723Z,12.78
2017-05-13T16:39:12.771Z,13.90
2017-05-13T16:41:42.122Z,13.76
2017-05-13T16:44:11.208Z,11.58
2017-05-13T16:46:40.997Z,12.28
2017-05-13T16:49:10.091Z,12.34
2017-05-13T16:51:39.147Z,13.06
2017-05-13T16:54:08.224Z,10.76
2017-05-13T16:56:37.309Z,10.94
2017-05-13T16:59:07.105Z,14.44
2017-05-13T17:01:36.196Z,11.50
2017-05-13T17:04:05.524Z,10.12
2017-05-13T17:06:34.590Z,12.18
2017-05-13T17:09:04.026Z,10.92
2017-05-13T17:11:33.112Z,14.76
2017-05-13T17:14:02.923Z,13.96
2017-05-13T17:16:32.740Z,15.12
2017-05-13T17:19:02.527Z,14.42
2017-05-13T17:21:31.630Z,14.08
2017-05-13T17:24:00.955Z,11.96
2017-05-13T17:26:30.359Z,14.78
2017-05-13T17:28:59.763Z,16.22
2017-05-13T17:31:28.836Z,15.52
2017-05-13T17:33:58.655Z,16.44
2017-05-13T17:36:28.444Z,16.92
2017-05-13T17:38:57.552Z,15.92
2017-05-13T17:41:26.823Z,14.00
2017-05-13T17:43:55.923Z,21.04
2017-05-13T17:46:24.971Z,15.20
2017-05-13T17:48:54.072Z,23.32
2017-05-13T17:51:23.178Z,15.30
2017-05-13T17:53:52.243Z,22.60
2017-05-13T17:56:22.381Z,18.60
2017-05-13T17:58:51.427Z,16.64
2017-05-13T18:01:20.578Z,15.56
2017-05-13T18:03:49.628Z,15.96
2017-05-13T18:06:18.717Z,19.30
2017-05-13T18:08:47.803Z,16.80
2017-05-13T18:11:16.857Z,16.18
2017-05-13T18:13:45.947Z,16.90
2017-05-13T18:16:15.732Z,16.70
2017-05-13T18:18:44.798Z,17.68
2017-05-13T18:21:13.889Z,18.60
2017-05-13T18:23:43.156Z,21.10
2017-05-13T18:26:12.235Z,21.68
2017-05-13T18:28:42.019Z,18.80
2017-05-13T18:31:11.125Z,25.20
2017-05-13T18:33:40.180Z,30.50
2017-05-13T18:36:09.274Z,27.82
2017-05-13T18:38:39.068Z,25.90
2017-05-13T18:41:08.160Z,24.02
2017-05-13T18:43:37.201Z,21.60
2017-05-13T18:46:06.273Z,24.26
2017-05-13T18:48:35.314Z,26.56
2017-05-13T18:51:04.419Z,25.06
2017-05-13T18:53:33.549Z,26.90
2017-05-13T18:56:02.642Z,26.50
2017-05-13T18:58:32.531Z,24.60
2017-05-13T19:01:02.344Z,23.60
2017-05-13T19:03:32.172Z,21.14
2017-05-13T19:06:01.217Z,23.38
2017-05-13T19:08:30.308Z,24.72
2017-05-13T19:10:59.354Z,20.56
2017-05-13T19:13:29.172Z,24.10
2017-05-13T19:15:58.479Z,20.32
2017-05-13T19:18:27.522Z,21.56
2017-05-13T19:20:56.623Z,22.70
2017-05-13T19:23:25.664Z,22.94
2017-05-13T19:25:54.768Z,23.14
2017-05-13T19:28:23.821Z,21.16
2017-05-13T19:30:52.907Z,24.40
2017-05-13T19:33:21.963Z,22.62
2017-05-13T19:35:51.040Z,24.76
2017-05-13T19:38:20.079Z,21.74
2017-05-13T19:40:49.162Z,23.06
2017-05-13T19:43:18.212Z,25.12
2017-05-13T19:45:48.018Z,24.94
2017-05-13T19:48:17.848Z,31.58
2017-05-13T19:50:46.912Z,29.58
2017-05-13T19:53:15.989Z,31.32
2017-05-13T19:55:45.844Z,31.40
2017-05-13T19:58:15.763Z,34.10
2017-05-13T20:00:45.170Z,31.32
2017-05-13T20:03:14.279Z,30.94
2017-05-13T20:05:43.349Z,32.14
2017-05-13T20:08:13.179Z,33.72
2017-05-13T20:10:42.480Z,33.66
2017-05-13T20:13:11.563Z,35.08
2017-05-13T20:15:41.343Z,35.58
2017-05-13T20:18:10.419Z,33.90
2017-05-13T20:20:39.499Z,31.26
2017-05-13T20:23:08.561Z,35.90
2017-05-13T20:25:38.395Z,32.10
2017-05-13T20:28:07.448Z,32.30
2017-05-13T20:30:36.532Z,30.60
2017-05-13T20:33:05.652Z,30.94
2017-05-13T20:35:35.438Z,34.58
2017-05-13T20:38:04.595Z,32.22
2017-05-13T20:40:33.640Z,33.58
2017-05-13T20:43:02.719Z,31.14
2017-05-13T20:45:31.997Z,34.50
2017-05-13T20:48:01.034Z,36.38
2017-05-13T20:50:30.107Z,34.96
2017-05-13T20:52:59.467Z,35.40
2017-05-13T20:55:28.510Z,33.36
2017-05-13T20:57:57.580Z,34.24
2017-05-13T21:00:26.623Z,32.48
2017-05-13T21:02:55.711Z,36.66
2017-05-13T21:05:24.745Z,32.42
2017-05-13T21:07:53.848Z,29.46
2017-05-13T21:10:22.892Z,25.98
2017-05-13T21:12:51.992Z,29.04
2017-05-13T21:15:21.045Z,31.16
2017-05-13T21:17:50.118Z,29.96
2017-05-13T21:20:19.207Z,31.00
2017-05-13T21:22:49.664Z,33.10
2017-05-13T21:25:18.756Z,34.08
2017-05-13T21:27:47.799Z,32.72
2017-05-13T21:30:16.895Z,35.18
2017-05-13T21:32:45.939Z,36.88
2017-05-13T21:35:15.015Z,38.30
2017-05-13T21:37:50.551Z,34.90
2017-05-13T21:40:20.392Z,30.48
2017-05-13T21:42:49.427Z,30.90
2017-05-13T21:45:18.507Z,33.66
2017-05-13T21:47:47.601Z,34.48
2017-05-13T21:50:16.673Z,36.24
2017-05-13T21:52:45.810Z,31.88
2017-05-13T21:55:14.859Z,32.94
2017-05-13T21:57:43.971Z,34.38
2017-05-13T22:00:13.039Z,37.28
2017-05-13T22:02:42.855Z,34.92
2017-05-13T22:05:11.959Z,35.34
2017-05-13T22:07:41.027Z,34.80
2017-05-13T22:10:10.112Z,38.74
2017-05-13T22:12:39.452Z,40.16
2017-05-13T22:15:08.856Z,37.32
2017-05-13T22:17:37.930Z,35.86
2017-05-13T22:20:07.972Z,35.24
2017-05-13T22:22:37.047Z,36.28
2017-05-13T22:25:06.921Z,36.00
2017-05-13T22:27:35.933Z,34.60
2017-05-13T22:30:05.016Z,35.98
2017-05-13T22:32:34.051Z,33.16
2017-05-13T22:35:03.875Z,32.90
2017-05-13T22:37:33.279Z,33.52
2017-05-13T22:40:02.372Z,40.26
2017-05-13T22:42:32.156Z,37.24
2017-05-13T22:45:01.243Z,39.66
2017-05-13T22:47:30.297Z,41.16
2017-05-13T22:49:59.365Z,37.02
2017-05-13T22:52:29.181Z,39.68
2017-05-13T22:54:58.964Z,41.08
2017-05-13T22:57:28.042Z,39.90
2017-05-13T22:59:57.097Z,41.24
2017-05-13T23:02:26.192Z,42.64
2017-05-13T23:04:55.226Z,42.88
2017-05-13T23:07:24.303Z,38.62
2017-05-13T23:09:53.391Z,45.42
2017-05-13T23:12:22.436Z,41.66
2017-05-13T23:14:51.509Z,45.36
2017-05-13T23:17:20.866Z,40.96
2017-05-13T23:19:49.907Z,41.72
2017-05-13T23:22:19.263Z,40.98
2017-05-13T23:24:48.342Z,42.56
2017-05-13T23:27:17.405Z,45.52
2017-05-13T23:29:46.435Z,46.68
2017-05-13T23:32:16.484Z,45.06
2017-05-13T23:34:45.536Z,43.60
2017-05-13T23:37:14.611Z,44.52
2017-05-13T23:39:43.960Z,42.46
2017-05-13T23:42:12.999Z,42.98
2017-05-13T23:44:42.083Z,47.38
2017-05-13T23:47:11.125Z,46.18
2017-05-13T23:49:40.977Z,43.64
2017-05-13T23:52:10.015Z,47.18
2017-05-13T23:54:39.086Z,46.02
2017-05-13T23:57:08.170Z,49.68
2017-05-13T23:59:37.217Z,48.32
